Time;durP1;ratioP1;P1;durP2;ratioP2;P2;SDS_P1;SDS_P2;PMS_P1;PMS_P2;Temp;Humidity;BMP_temperature;BMP_pressure;BME280_temperature;BME280_humidity;BME280_pressure;Samples;Min_cycle;Max_cycle;Signal;HPM_P1;HPM_P2
2023/05/31 00:01:59;;;;;;;5.47;3.03;;;12.80;53.60;;;;;;5075039;28;20225;-73
2023/05/31 00:04:26;;;;;;;5.07;2.70;;;12.80;55.30;;;;;;5078715;28;20201;-74
2023/05/31 00:06:52;;;;;;;4.00;2.33;;;12.70;55.80;;;;;;5074906;28;20266;-73
2023/05/31 00:09:19;;;;;;;4.93;2.43;;;12.70;55.70;;;;;;5074723;28;20611;-73
2023/05/31 00:11:46;;;;;;;4.27;2.63;;;12.70;56.80;;;;;;5074698;28;20247;-73
2023/05/31 00:14:12;;;;;;;4.67;2.40;;;12.50;57.30;;;;;;5074529;28;20592;-73
2023/05/31 00:16:39;;;;;;;3.87;2.40;;;12.40;58.00;;;;;;5074661;28;20197;-73
2023/05/31 00:19:07;;;;;;;5.67;2.70;;;12.40;60.20;;;;;;5074404;28;20244;-73
2023/05/31 00:21:33;;;;;;;5.83;3.00;;;12.40;60.50;;;;;;5074203;28;20217;-73
2023/05/31 00:24:00;;;;;;;7.70;2.83;;;12.40;61.90;;;;;;5073932;28;20193;-74
2023/05/31 00:26:26;;;;;;;9.00;2.60;;;12.20;62.50;;;;;;5074397;28;20258;-73
2023/05/31 00:28:53;;;;;;;6.53;3.07;;;12.30;64.80;;;;;;5074301;28;20711;-73
2023/05/31 00:31:20;;;;;;;5.50;2.90;;;12.30;64.50;;;;;;5074364;28;20205;-73
2023/05/31 00:33:46;;;;;;;6.67;2.87;;;12.10;64.70;;;;;;5074347;28;20205;-73
2023/05/31 00:36:14;;;;;;;4.50;2.70;;;12.20;67.00;;;;;;5074137;28;20254;-73
2023/05/31 00:38:41;;;;;;;5.23;2.77;;;12.00;67.20;;;;;;5073933;28;20197;-73
2023/05/31 00:41:10;;;;;;;6.70;3.10;;;11.90;67.40;;;;;;5074173;28;20225;-73
2023/05/31 00:43:37;;;;;;;6.07;2.83;;;12.00;69.30;;;;;;5074122;28;20757;-73
2023/05/31 00:46:04;;;;;;;4.93;3.20;;;12.00;70.60;;;;;;5074013;28;20197;-73
2023/05/31 00:48:31;;;;;;;5.37;2.53;;;11.90;70.40;;;;;;5073937;28;20205;-73
2023/05/31 00:50:58;;;;;;;6.87;3.23;;;11.70;74.70;;;;;;5073557;28;20201;-73
2023/05/31 00:53:26;;;;;;;7.60;3.00;;;11.80;76.60;;;;;;5073576;28;20240;-73
2023/05/31 00:55:53;;;;;;;9.47;3.43;;;11.80;75.00;;;;;;5073973;28;20295;-73
2023/05/31 00:58:21;;;;;;;7.90;3.00;;;11.70;75.60;;;;;;5073900;28;20197;-73
2023/05/31 01:00:47;;;;;;;8.93;2.93;;;11.70;77.70;;;;;;5073647;28;20287;-73
2023/05/31 01:03:15;;;;;;;5.30;2.80;;;11.70;78.20;;;;;;5073727;28;20250;-73
2023/05/31 01:05:44;;;;;;;6.10;2.73;;;11.60;80.10;;;;;;5073362;28;20201;-73
2023/05/31 01:08:10;;;;;;;6.00;2.77;;;11.50;81.70;;;;;;5073495;28;20207;-74
2023/05/31 01:10:38;;;;;;;10.47;3.30;;;11.60;82.20;;;;;;5073583;28;20205;-73
2023/05/31 01:13:11;;;;;;;6.43;3.37;;;11.60;86.30;;;;;;5073458;28;20250;-73
2023/05/31 01:15:44;;;;;;;5.57;3.10;;;11.50;83.10;;;;;;5073389;28;20238;-74
2023/05/31 01:18:26;;;;;;;4.63;3.40;;;11.40;85.70;;;;;;5073346;28;20193;-73
2023/05/31 01:20:54;;;;;;;8.07;3.67;;;11.40;86.40;;;;;;5073375;28;20223;-74
2023/05/31 01:23:47;;;;;;;6.03;3.50;;;11.30;89.30;;;;;;5073085;28;20616;-73
2023/05/31 01:26:33;;;;;;;7.20;3.30;;;11.20;91.40;;;;;;5070274;28;20193;-73
2023/05/31 01:29:04;;;;;;;8.53;3.30;;;11.20;92.50;;;;;;5073293;28;20250;-73
2023/05/31 01:31:34;;;;;;;9.30;3.27;;;11.20;92.90;;;;;;5073264;28;20223;-74
2023/05/31 01:34:01;;;;;;;6.87;3.10;;;11.00;93.50;;;;;;5073200;28;20200;-73
2023/05/31 01:36:28;;;;;;;8.30;3.10;;;11.10;94.20;;;;;;5073080;28;20197;-73
2023/05/31 01:38:55;;;;;;;5.87;3.10;;;10.90;94.40;;;;;;5072913;28;20254;-73
2023/05/31 01:41:23;;;;;;;5.40;3.17;;;11.00;96.40;;;;;;5072863;28;20692;-73
2023/05/31 01:43:51;;;;;;;7.53;3.27;;;10.90;96.50;;;;;;5073118;28;20255;-73
2023/05/31 01:46:19;;;;;;;4.13;2.90;;;10.90;98.00;;;;;;5072969;28;20208;-73
2023/05/31 01:48:47;;;;;;;7.50;3.27;;;10.90;97.70;;;;;;5072629;28;20197;-73
2023/05/31 01:51:15;;;;;;;11.57;3.03;;;10.90;96.30;;;;;;5072887;28;20209;-73
2023/05/31 01:53:42;;;;;;;4.77;2.77;;;11.00;96.70;;;;;;5072607;28;20225;-73
2023/05/31 01:56:09;;;;;;;4.73;2.57;;;11.10;96.40;;;;;;5072875;28;20193;-73
2023/05/31 01:58:38;;;;;;;5.37;2.80;;;11.00;96.50;;;;;;5072812;28;20205;-73
2023/05/31 02:01:07;;;;;;;5.87;3.03;;;11.00;96.50;;;;;;5072580;28;20228;-73
2023/05/31 02:03:33;;;;;;;5.33;3.07;;;10.90;96.50;;;;;;5071886;28;20255;-73
2023/05/31 02:06:01;;;;;;;4.57;2.90;;;10.80;97.70;;;;;;5072684;28;20205;-73
2023/05/31 02:08:28;;;;;;;6.50;2.93;;;10.80;97.20;;;;;;5072899;28;20193;-73
2023/05/31 02:10:55;;;;;;;5.87;2.80;;;10.90;97.10;;;;;;5072436;28;20197;-73
2023/05/31 02:13:26;;;;;;;4.83;2.77;;;10.90;97.40;;;;;;5072671;28;20197;-73
2023/05/31 02:15:53;;;;;;;6.73;2.93;;;10.80;97.20;;;;;;5072606;28;20220;-73
2023/05/31 02:18:21;;;;;;;5.97;3.00;;;10.80;97.00;;;;;;5072422;28;20648;-72
2023/05/31 02:20:48;;;;;;;6.27;3.07;;;10.80;97.10;;;;;;5072407;28;20300;-73
2023/05/31 02:23:15;;;;;;;6.60;3.37;;;10.60;97.20;;;;;;5072733;28;20193;-73
2023/05/31 02:25:45;;;;;;;6.30;2.80;;;10.70;97.40;;;;;;5072739;28;20274;-73
2023/05/31 02:28:11;;;;;;;5.43;2.70;;;10.70;97.70;;;;;;5072637;28;20196;-73
2023/05/31 02:30:40;;;;;;;5.43;3.03;;;10.80;97.30;;;;;;5072664;28;20208;-73
2023/05/31 02:33:07;;;;;;;9.00;3.20;;;10.80;96.30;;;;;;5072412;28;20201;-73
2023/05/31 02:35:35;;;;;;;5.63;3.00;;;10.80;96.20;;;;;;5072665;28;20207;-73
2023/05/31 02:38:02;;;;;;;4.40;2.80;;;10.80;96.60;;;;;;5072457;28;20219;-73
2023/05/31 02:40:28;;;;;;;9.00;3.20;;;10.60;96.80;;;;;;5072437;28;20197;-73
2023/05/31 02:42:55;;;;;;;6.10;3.20;;;10.50;97.80;;;;;;5072319;28;20224;-73
2023/05/31 02:45:21;;;;;;;9.70;3.47;;;10.60;97.30;;;;;;5072315;28;20274;-73
2023/05/31 02:47:48;;;;;;;7.57;3.30;;;10.60;97.70;;;;;;5072141;28;20705;-73
2023/05/31 02:50:15;;;;;;;9.10;3.87;;;10.50;98.50;;;;;;5072456;28;20242;-73
2023/05/31 02:52:43;;;;;;;9.00;3.93;;;10.50;98.50;;;;;;5072145;28;20201;-73
2023/05/31 02:55:09;;;;;;;8.13;4.20;;;10.50;98.20;;;;;;5072424;28;20267;-73
2023/05/31 02:57:36;;;;;;;8.73;3.43;;;10.60;99.50;;;;;;5072176;28;20196;-73
2023/05/31 03:00:10;;;;;;;6.40;3.40;;;10.60;98.20;;;;;;5072125;28;20656;-73
2023/05/31 03:02:37;;;;;;;6.37;3.30;;;10.50;98.50;;;;;;5072203;28;20228;-73
2023/05/31 03:05:05;;;;;;;3.63;2.97;;;10.60;97.50;;;;;;5072289;28;20207;-73
2023/05/31 03:07:31;;;;;;;8.70;3.63;;;10.70;96.80;;;;;;5071955;28;20710;-73
2023/05/31 03:09:59;;;;;;;4.70;3.27;;;10.60;96.50;;;;;;5072087;28;20194;-73
2023/05/31 03:12:26;;;;;;;6.23;2.87;;;10.70;95.70;;;;;;5071932;28;20595;-73
2023/05/31 03:14:52;;;;;;;4.83;3.10;;;10.70;95.70;;;;;;5073671;28;20553;-73
2023/05/31 03:17:20;;;;;;;5.03;3.47;;;10.70;95.70;;;;;;5075771;28;20248;-73
2023/05/31 03:19:46;;;;;;;6.00;3.00;;;10.70;95.50;;;;;;5075669;28;20564;-73
2023/05/31 03:22:13;;;;;;;6.20;3.03;;;10.70;95.60;;;;;;5075617;28;20285;-73
2023/05/31 03:24:40;;;;;;;6.50;3.10;;;10.70;95.80;;;;;;5075421;28;20205;-73
2023/05/31 03:27:08;;;;;;;5.53;2.80;;;10.70;95.60;;;;;;5075361;28;20632;-73
2023/05/31 03:29:37;;;;;;;5.90;2.97;;;10.70;95.80;;;;;;5075345;28;20738;-73
2023/05/31 03:32:04;;;;;;;4.63;2.70;;;10.70;96.40;;;;;;5075586;28;20417;-73
2023/05/31 03:34:30;;;;;;;4.87;2.80;;;10.70;95.50;;;;;;5075426;28;20193;-73
2023/05/31 03:36:57;;;;;;;7.27;2.97;;;10.80;96.00;;;;;;5075310;28;20247;-73
2023/05/31 03:39:24;;;;;;;9.37;2.90;;;10.80;96.20;;;;;;5075323;28;20267;-74
2023/05/31 03:41:50;;;;;;;7.17;3.00;;;10.80;95.60;;;;;;5075058;28;20297;-73
2023/05/31 03:44:18;;;;;;;4.43;3.00;;;10.90;95.40;;;;;;5075114;28;20197;-73
2023/05/31 03:46:47;;;;;;;7.13;3.70;;;10.90;95.20;;;;;;5075286;28;20201;-73
2023/05/31 03:49:13;;;;;;;9.80;3.50;;;10.90;95.10;;;;;;5075014;28;20197;-73
2023/05/31 03:51:40;;;;;;;3.93;3.00;;;10.90;95.20;;;;;;5075088;28;20201;-73
2023/05/31 03:54:06;;;;;;;6.90;3.20;;;10.90;95.20;;;;;;5074798;28;20271;-73
2023/05/31 03:56:33;;;;;;;6.53;3.47;;;11.00;95.20;;;;;;5074692;28;20204;-73
2023/05/31 03:58:59;;;;;;;10.07;3.10;;;11.10;94.40;;;;;;5074861;28;20250;-74
2023/05/31 04:01:27;;;;;;;4.33;3.03;;;11.10;94.20;;;;;;5074847;28;20302;-73
2023/05/31 04:03:54;;;;;;;5.70;2.97;;;11.20;94.10;;;;;;5074838;28;20199;-73
2023/05/31 04:06:22;;;;;;;5.57;2.90;;;11.20;93.80;;;;;;5074732;28;20244;-73
2023/05/31 04:08:48;;;;;;;5.07;2.93;;;11.20;93.60;;;;;;5074171;28;20629;-73
2023/05/31 04:11:15;;;;;;;8.20;3.30;;;11.30;93.70;;;;;;5074488;28;20205;-74
2023/05/31 04:13:42;;;;;;;6.60;3.43;;;11.40;93.70;;;;;;5074689;28;20193;-74
2023/05/31 04:16:08;;;;;;;6.47;3.53;;;11.50;93.80;;;;;;5074624;28;20259;-75
2023/05/31 04:18:36;;;;;;;4.43;2.73;;;11.60;93.10;;;;;;5074550;28;20205;-73
2023/05/31 04:21:03;;;;;;;4.50;2.70;;;11.60;92.90;;;;;;5074427;28;20653;-73
2023/05/31 04:23:30;;;;;;;6.60;3.20;;;11.70;92.60;;;;;;5074289;28;20233;-74
2023/05/31 04:26:00;;;;;;;10.63;3.10;;;11.70;93.20;;;;;;5073576;28;20659;-74
2023/05/31 04:28:29;;;;;;;6.47;3.23;;;11.80;91.90;;;;;;5074029;28;20656;-73
2023/05/31 04:30:56;;;;;;;3.97;2.80;;;11.90;92.60;;;;;;5074124;28;20576;-73
2023/05/31 04:33:22;;;;;;;4.77;2.90;;;11.90;91.60;;;;;;5074204;28;20201;-74
2023/05/31 04:35:51;;;;;;;5.03;3.00;;;12.00;92.10;;;;;;5074224;28;20583;-73
2023/05/31 04:38:18;;;;;;;6.40;3.00;;;12.00;91.10;;;;;;5074048;28;20193;-73
2023/05/31 04:40:45;;;;;;;7.27;3.10;;;12.10;90.50;;;;;;5074240;28;20199;-74
2023/05/31 04:43:11;;;;;;;4.90;3.10;;;12.10;90.70;;;;;;5074041;28;20229;-74
2023/05/31 04:45:40;;;;;;;5.83;3.10;;;12.10;90.10;;;;;;5074173;28;20197;-74
2023/05/31 04:48:07;;;;;;;6.70;3.30;;;12.30;90.90;;;;;;5073814;28;20607;-74
2023/05/31 04:50:33;;;;;;;4.30;2.73;;;12.40;90.40;;;;;;5073806;28;20205;-73
2023/05/31 04:53:02;;;;;;;5.57;3.13;;;12.50;89.10;;;;;;5073841;28;20320;-73
2023/05/31 04:55:28;;;;;;;5.37;2.70;;;12.50;90.00;;;;;;5073943;28;20308;-74
2023/05/31 04:57:55;;;;;;;5.13;2.87;;;12.60;87.50;;;;;;5073891;28;20201;-74
2023/05/31 05:00:22;;;;;;;4.47;3.03;;;12.60;87.70;;;;;;5073839;28;20588;-74
2023/05/31 05:02:48;;;;;;;5.50;2.90;;;12.70;87.40;;;;;;5073584;28;20229;-74
2023/05/31 05:05:15;;;;;;;7.23;2.80;;;12.80;87.60;;;;;;5073509;28;20201;-74
2023/05/31 05:07:42;;;;;;;3.43;2.80;;;12.90;85.70;;;;;;5073344;28;20679;-74
2023/05/31 05:10:11;;;;;;;5.43;3.17;;;13.00;85.20;;;;;;5073436;28;20679;-74
2023/05/31 05:12:37;;;;;;;4.73;2.97;;;13.10;85.50;;;;;;5073653;28;20208;-74
2023/05/31 05:15:04;;;;;;;5.20;2.77;;;13.20;84.00;;;;;;5073391;28;20653;-74
2023/05/31 05:17:31;;;;;;;5.13;3.07;;;13.30;85.30;;;;;;5073299;28;20193;-74
2023/05/31 05:19:58;;;;;;;6.43;3.00;;;13.30;82.50;;;;;;5073221;28;20200;-74
2023/05/31 05:22:24;;;;;;;4.77;3.10;;;13.40;82.60;;;;;;5073330;28;20262;-74
2023/05/31 05:24:51;;;;;;;4.17;2.77;;;13.50;83.20;;;;;;5072911;28;20726;-74
2023/05/31 05:27:21;;;;;;;4.23;3.03;;;13.50;82.10;;;;;;5073194;28;20251;-74
2023/05/31 05:29:48;;;;;;;5.70;2.77;;;13.50;81.60;;;;;;5073125;28;20189;-74
2023/05/31 05:32:15;;;;;;;4.23;2.70;;;13.60;82.30;;;;;;5073209;28;20280;-74
2023/05/31 05:34:41;;;;;;;8.30;3.00;;;13.60;80.40;;;;;;5073281;28;20201;-74
2023/05/31 05:37:08;;;;;;;5.50;2.93;;;13.60;80.40;;;;;;5072587;28;20660;-74
2023/05/31 05:39:34;;;;;;;5.97;3.03;;;13.70;79.60;;;;;;5072762;28;20255;-74
2023/05/31 05:42:02;;;;;;;5.53;3.07;;;13.80;79.60;;;;;;5073174;28;20631;-73
2023/05/31 05:44:30;;;;;;;7.10;3.40;;;13.80;78.90;;;;;;5073197;28;20196;-74
2023/05/31 05:46:57;;;;;;;5.43;3.20;;;13.80;78.60;;;;;;5072868;28;20197;-74
2023/05/31 05:49:24;;;;;;;5.23;2.87;;;13.90;78.90;;;;;;5072997;28;20570;-73
2023/05/31 05:51:50;;;;;;;4.83;2.90;;;13.90;79.50;;;;;;5073195;28;20213;-73
2023/05/31 05:54:17;;;;;;;4.13;2.80;;;14.00;77.90;;;;;;5072924;28;20229;-73
2023/05/31 05:56:44;;;;;;;5.47;2.83;;;14.10;77.90;;;;;;5072849;28;20201;-74
2023/05/31 05:59:10;;;;;;;7.63;2.93;;;14.20;78.50;;;;;;5072770;28;20197;-73
2023/05/31 06:01:38;;;;;;;4.27;3.10;;;14.20;79.10;;;;;;5072352;28;20200;-73
2023/05/31 06:04:05;;;;;;;6.77;3.17;;;14.40;80.30;;;;;;5072791;28;20286;-73
2023/05/31 06:06:31;;;;;;;7.87;2.63;;;14.40;78.50;;;;;;5072779;28;20226;-73
2023/05/31 06:08:58;;;;;;;4.00;2.47;;;14.50;78.10;;;;;;5072698;28;20197;-74
2023/05/31 06:11:25;;;;;;;5.67;2.80;;;14.60;80.00;;;;;;5072855;28;20201;-74
2023/05/31 06:13:56;;;;;;;3.77;2.87;;;14.70;77.00;;;;;;5072716;28;20293;-74
2023/05/31 06:16:23;;;;;;;4.27;2.73;;;14.70;76.40;;;;;;5072967;28;20239;-74
2023/05/31 06:18:51;;;;;;;6.00;2.67;;;14.80;76.00;;;;;;5072796;28;20292;-74
2023/05/31 06:21:17;;;;;;;4.50;2.90;;;14.80;77.10;;;;;;5072617;28;20205;-75
2023/05/31 06:23:44;;;;;;;7.63;2.97;;;15.00;77.40;;;;;;5072287;28;20700;-74
2023/05/31 06:26:11;;;;;;;5.83;2.90;;;15.00;75.80;;;;;;5072492;28;20213;-74
2023/05/31 06:28:37;;;;;;;6.43;2.80;;;15.00;73.70;;;;;;5072367;28;20220;-74
2023/05/31 06:31:04;;;;;;;8.73;3.00;;;15.10;73.70;;;;;;5072793;28;20201;-74
2023/05/31 06:33:31;;;;;;;5.53;3.23;;;15.10;73.40;;;;;;5072530;28;20220;-74
2023/05/31 06:35:59;;;;;;;7.95;3.55;;;15.20;73.60;;;;;;5072650;28;20197;-74
2023/05/31 06:38:25;;;;;;;9.40;4.00;;;15.30;71.70;;;;;;5072235;28;20608;-75
2023/05/31 06:40:53;;;;;;;9.07;2.97;;;15.30;71.70;;;;;;5072335;28;20201;-74
2023/05/31 06:43:20;;;;;;;5.22;3.58;;;15.40;72.50;;;;;;5072367;28;20225;-74
2023/05/31 06:45:46;;;;;;;6.78;3.45;;;15.50;71.80;;;;;;5072637;28;20224;-74
2023/05/31 06:48:13;;;;;;;8.57;3.80;;;15.50;72.10;;;;;;5072510;28;20193;-74
2023/05/31 06:50:39;;;;;;;6.70;3.75;;;15.60;71.60;;;;;;5084307;28;20197;-74
2023/05/31 06:53:09;;;;;;;6.68;3.97;;;15.70;71.90;;;;;;5076265;28;20278;-74
2023/05/31 06:55:36;;;;;;;5.38;3.42;;;15.70;71.10;;;;;;5076528;28;20205;-74
2023/05/31 06:58:03;;;;;;;7.13;3.97;;;15.70;70.80;;;;;;5076835;28;20201;-74
2023/05/31 07:00:29;;;;;;;6.40;3.58;;;15.90;70.30;;;;;;5076318;28;20200;-74
2023/05/31 07:02:56;;;;;;;10.02;3.55;;;16.10;70.70;;;;;;5076240;28;20229;-73
2023/05/31 07:05:22;;;;;;;9.25;3.47;;;16.10;69.60;;;;;;5075995;28;20200;-74
2023/05/31 07:07:49;;;;;;;10.25;3.22;;;16.30;69.10;;;;;;5075642;28;20676;-74
2023/05/31 07:10:18;;;;;;;12.70;3.55;;;16.30;67.60;;;;;;5075713;28;20228;-73
2023/05/31 07:12:45;;;;;;;6.45;3.03;;;16.50;67.80;;;;;;5076080;28;20532;-73
2023/05/31 07:15:12;;;;;;;8.05;3.40;;;16.60;67.50;;;;;;5075968;28;20193;-78
2023/05/31 07:17:38;;;;;;;5.30;2.83;;;16.80;65.70;;;;;;5075881;28;20200;-78
2023/05/31 07:20:07;;;;;;;7.00;2.72;;;16.80;63.20;;;;;;5075763;28;20255;-78
2023/05/31 07:22:34;;;;;;;8.05;2.70;;;17.00;62.30;;;;;;5075781;28;20676;-78
2023/05/31 07:25:00;;;;;;;5.55;3.15;;;17.00;59.90;;;;;;5077985;28;20243;-79
2023/05/31 07:27:28;;;;;;;6.47;3.17;;;17.00;60.30;;;;;;5076388;28;20258;-77
2023/05/31 07:29:55;;;;;;;6.45;3.10;;;17.20;58.70;;;;;;5075900;28;20197;-75
2023/05/31 07:32:22;;;;;;;7.90;3.28;;;17.30;57.50;;;;;;5075620;28;20266;-79
2023/05/31 07:34:49;;;;;;;10.02;3.10;;;17.40;57.10;;;;;;5075373;28;20224;-72
2023/05/31 07:37:15;;;;;;;4.38;2.85;;;17.50;55.80;;;;;;5075310;28;20250;-74
2023/05/31 07:39:44;;;;;;;5.53;3.00;;;17.50;55.70;;;;;;5075124;28;20726;-73
2023/05/31 07:42:12;;;;;;;4.10;2.90;;;17.80;55.80;;;;;;5075229;28;20208;-73
2023/05/31 07:44:40;;;;;;;6.28;3.00;;;17.90;54.70;;;;;;5075070;28;20383;-71
2023/05/31 07:47:07;;;;;;;8.65;3.20;;;18.20;54.70;;;;;;5075015;28;20238;-73
2023/05/31 07:49:34;;;;;;;4.45;3.08;;;18.20;53.30;;;;;;5075071;28;20250;-73
2023/05/31 07:52:01;;;;;;;4.25;2.70;;;18.40;52.90;;;;;;5073991;28;20255;-72
2023/05/31 07:54:28;;;;;;;7.70;2.80;;;18.70;52.40;;;;;;5065353;28;20229;-72
2023/05/31 07:56:55;;;;;;;6.15;2.70;;;18.90;51.90;;;;;;5054843;28;20201;-74
2023/05/31 07:59:21;;;;;;;6.40;2.90;;;19.00;50.90;;;;;;5074231;28;20197;-74
2023/05/31 08:01:49;;;;;;;6.60;2.72;;;19.10;50.30;;;;;;5073364;28;20204;-74
2023/05/31 08:04:16;;;;;;;6.35;2.70;;;19.30;50.60;;;;;;5074775;28;20229;-74
2023/05/31 08:06:43;;;;;;;5.80;3.33;;;19.40;49.30;;;;;;5074984;28;20231;-74
2023/05/31 08:09:10;;;;;;;5.00;2.92;;;19.60;48.10;;;;;;5074683;28;20208;-75
2023/05/31 08:11:37;;;;;;;5.28;2.80;;;19.70;47.90;;;;;;5074691;28;20223;-76
2023/05/31 08:14:04;;;;;;;10.55;2.97;;;19.80;48.40;;;;;;5074509;28;20201;-75
2023/05/31 08:16:33;;;;;;;10.20;2.88;;;20.00;47.50;;;;;;5074521;28;20254;-74
2023/05/31 08:19:01;;;;;;;5.28;2.85;;;20.20;45.70;;;;;;5074436;28;20199;-83
2023/05/31 08:21:28;;;;;;;5.50;3.08;;;20.30;43.60;;;;;;5075756;28;20292;-76
2023/05/31 08:23:55;;;;;;;5.70;3.20;;;20.40;43.00;;;;;;5074723;28;20229;-77
2023/05/31 08:26:21;;;;;;;8.48;3.20;;;20.70;42.70;;;;;;5074608;28;20201;-76
2023/05/31 08:28:49;;;;;;;5.93;3.00;;;20.80;40.40;;;;;;5074467;28;20197;-76
2023/05/31 08:31:16;;;;;;;5.60;2.90;;;20.80;40.20;;;;;;5075533;28;20204;-75
2023/05/31 08:33:54;;;;;;;6.38;2.95;;;21.00;38.10;;;;;;5079263;28;20274;-75
2023/05/31 08:36:22;;;;;;;5.85;3.00;;;21.00;37.80;;;;;;5081105;28;20232;-75
2023/05/31 08:38:48;;;;;;;7.88;3.03;;;21.10;37.80;;;;;;5081657;28;20603;-75
2023/05/31 08:41:15;;;;;;;9.40;2.97;;;21.20;37.90;;;;;;5080283;28;20254;-76
2023/05/31 08:43:42;;;;;;;3.60;2.60;;;21.60;36.60;;;;;;5080211;28;20277;-75
2023/05/31 08:46:09;;;;;;;6.13;2.90;;;21.70;36.20;;;;;;5076640;28;20201;-76
2023/05/31 08:48:40;;;;;;;7.63;3.17;;;21.80;35.40;;;;;;5074137;28;20604;-76
2023/05/31 08:51:08;;;;;;;8.40;3.30;;;21.90;34.80;;;;;;5074200;28;20699;-76
2023/05/31 08:53:36;;;;;;;6.28;2.88;;;21.90;34.40;;;;;;5074046;28;20229;-75
2023/05/31 08:56:05;;;;;;;4.97;2.90;;;22.10;33.10;;;;;;5074058;28;20197;-76
2023/05/31 08:58:32;;;;;;;7.35;2.80;;;22.30;31.30;;;;;;5073735;28;20248;-76
2023/05/31 09:00:59;;;;;;;5.75;3.00;;;22.40;30.70;;;;;;5074043;28;20201;-76
2023/05/31 09:03:26;;;;;;;4.82;2.67;;;22.50;29.40;;;;;;5073785;28;20577;-76
2023/05/31 09:05:55;;;;;;;3.97;2.78;;;22.60;29.80;;;;;;5073732;28;20231;-76
2023/05/31 09:08:21;;;;;;;5.80;3.03;;;22.80;29.80;;;;;;5073663;28;20197;-76
2023/05/31 09:10:50;;;;;;;5.43;3.30;;;22.80;28.60;;;;;;5073567;28;20266;-76
2023/05/31 09:13:17;;;;;;;7.57;3.08;;;22.90;28.40;;;;;;5073221;28;20205;-77
2023/05/31 09:15:45;;;;;;;7.18;3.13;;;23.20;28.20;;;;;;5073730;28;20200;-76
2023/05/31 09:18:15;;;;;;;5.97;2.83;;;23.20;27.90;;;;;;5073425;28;20545;-76
2023/05/31 09:20:42;;;;;;;4.88;3.15;;;23.20;26.60;;;;;;5073414;28;20201;-76
2023/05/31 09:23:10;;;;;;;7.22;3.08;;;23.30;27.30;;;;;;5073363;28;20217;-76
2023/05/31 09:25:47;;;;;;;7.47;2.88;;;23.40;26.20;;;;;;5073370;28;20193;-76
2023/05/31 09:28:15;;;;;;;5.45;3.38;;;23.70;26.40;;;;;;5073548;28;20201;-76
2023/05/31 09:30:42;;;;;;;7.50;3.10;;;23.80;26.50;;;;;;5073376;28;20350;-76
2023/05/31 09:33:10;;;;;;;6.03;3.22;;;24.00;26.70;;;;;;5073166;28;20550;-76
2023/05/31 09:35:37;;;;;;;5.75;3.33;;;24.10;25.70;;;;;;5073207;28;20201;-76
2023/05/31 09:38:07;;;;;;;7.72;3.35;;;24.40;26.20;;;;;;5073251;28;20201;-76
2023/05/31 09:40:34;;;;;;;4.35;3.10;;;24.80;26.10;;;;;;5073576;28;20201;-75
2023/05/31 09:43:01;;;;;;;8.13;2.90;;;24.90;23.90;;;;;;5073059;28;20201;-76
2023/05/31 09:45:29;;;;;;;5.55;2.92;;;24.80;23.60;;;;;;5073289;28;20263;-76
2023/05/31 09:47:56;;;;;;;5.13;3.05;;;25.00;23.10;;;;;;5073302;28;20201;-75
2023/05/31 09:50:24;;;;;;;5.95;2.78;;;25.10;23.50;;;;;;5073186;28;20197;-76
2023/05/31 09:52:56;;;;;;;5.18;2.47;;;25.10;22.40;;;;;;5072704;28;20247;-76
2023/05/31 09:55:23;;;;;;;3.67;2.67;;;25.10;20.50;;;;;;5073110;28;20338;-76
2023/05/31 09:57:54;;;;;;;4.30;2.92;;;25.10;20.20;;;;;;5073004;28;20260;-76
2023/05/31 10:00:20;;;;;;;4.35;2.88;;;25.30;20.90;;;;;;5073089;28;20287;-76
2023/05/31 10:02:50;;;;;;;6.97;2.90;;;25.50;20.80;;;;;;5073026;28;20204;-76
2023/05/31 10:05:17;;;;;;;4.38;2.60;;;25.60;20.90;;;;;;5072794;28;20232;-76
2023/05/31 10:07:46;;;;;;;6.05;2.85;;;26.00;21.50;;;;;;5073253;28;20270;-76
2023/05/31 10:10:13;;;;;;;4.30;2.60;;;26.10;21.60;;;;;;5072971;28;20201;-76
2023/05/31 10:12:46;;;;;;;3.85;2.70;;;26.10;21.40;;;;;;5073010;28;20200;-76
2023/05/31 10:15:16;;;;;;;6.28;2.80;;;26.40;20.90;;;;;;5073003;28;20205;-76
2023/05/31 10:17:49;;;;;;;3.60;2.50;;;26.70;19.30;;;;;;5072690;28;20201;-75
2023/05/31 10:20:19;;;;;;;7.82;2.88;;;26.80;19.50;;;;;;5072905;28;20197;-76
2023/05/31 10:22:50;;;;;;;4.53;2.75;;;27.00;20.00;;;;;;5072905;28;20258;-75
2023/05/31 10:25:26;;;;;;;4.05;2.65;;;27.30;19.30;;;;;;5078063;28;20221;-77
2023/05/31 10:27:56;;;;;;;4.55;2.40;;;27.70;17.80;;;;;;5079268;28;20713;-76
2023/05/31 10:30:27;;;;;;;4.47;3.10;;;27.70;18.40;;;;;;5079217;28;20587;-76
2023/05/31 10:33:00;;;;;;;4.00;2.70;;;27.70;18.50;;;;;;5079294;28;20657;-76
2023/05/31 10:35:28;;;;;;;3.35;2.17;;;28.10;17.60;;;;;;5079287;28;20295;-76
2023/05/31 10:37:55;;;;;;;4.68;2.60;;;28.20;17.20;;;;;;5079293;28;20201;-76
2023/05/31 10:40:28;;;;;;;4.40;2.42;;;28.50;16.80;;;;;;5079241;28;20222;-77
2023/05/31 10:43:01;;;;;;;4.43;2.60;;;28.70;15.50;;;;;;5079286;28;20204;-75
2023/05/31 10:45:35;;;;;;;6.95;2.70;;;28.80;14.90;;;;;;5079304;28;20228;-75
2023/05/31 10:48:07;;;;;;;4.78;2.97;;;29.10;15.10;;;;;;5079092;28;20207;-76
2023/05/31 10:50:35;;;;;;;4.82;2.55;;;29.60;15.20;;;;;;5079002;28;20797;-76
2023/05/31 10:53:12;;;;;;;3.97;2.55;;;29.60;15.00;;;;;;5085982;28;20227;-76
2023/05/31 10:55:42;;;;;;;3.40;2.30;;;30.50;14.80;;;;;;5079065;28;20196;-75
2023/05/31 10:58:25;;;;;;;6.75;2.80;;;30.50;13.60;;;;;;5079176;28;20200;-75
2023/05/31 11:00:54;;;;;;;7.78;2.78;;;31.10;14.00;;;;;;5078897;28;20206;-75
2023/05/31 11:03:22;;;;;;;7.90;2.60;;;31.00;13.40;;;;;;5078440;28;20228;-75
2023/05/31 11:05:57;;;;;;;4.30;2.50;;;30.90;13.90;;;;;;5078429;28;20211;-75
2023/05/31 11:08:24;;;;;;;5.75;2.60;;;31.70;13.10;;;;;;5078663;28;20205;-76
2023/05/31 11:10:51;;;;;;;6.40;2.80;;;32.00;13.20;;;;;;5078826;28;20207;-76
2023/05/31 11:13:18;;;;;;;5.50;2.67;;;32.70;12.90;;;;;;5078768;28;20595;-75
2023/05/31 11:15:46;;;;;;;4.00;2.63;;;33.00;12.20;;;;;;5078705;28;20204;-76
2023/05/31 11:18:16;;;;;;;5.47;2.38;;;32.80;11.90;;;;;;5078678;28;20192;-76
2023/05/31 11:20:42;;;;;;;7.25;2.50;;;33.00;12.50;;;;;;5078929;28;20197;-77
2023/05/31 11:23:28;;;;;;;3.90;2.53;;;33.00;11.10;;;;;;5078850;28;20250;-76
2023/05/31 11:26:08;;;;;;;5.18;2.50;;;32.90;10.40;;;;;;5078677;28;20192;-75
2023/05/31 11:28:51;;;;;;;3.90;2.67;;;33.20;10.30;;;;;;5078494;28;20258;-76
2023/05/31 11:31:18;;;;;;;4.05;2.42;;;34.00;9.80;;;;;;5078842;28;20196;-76
2023/05/31 11:33:45;;;;;;;5.35;2.60;;;34.20;9.80;;;;;;5078483;28;20659;-76
2023/05/31 11:36:15;;;;;;;6.63;2.78;;;33.90;9.80;;;;;;5076659;28;20317;-76
2023/05/31 11:38:43;;;;;;;4.90;3.03;;;34.30;9.60;;;;;;5075189;28;20267;-76
2023/05/31 11:41:10;;;;;;;4.28;3.08;;;34.20;9.20;;;;;;5075164;28;20242;-76
2023/05/31 11:43:37;;;;;;;8.32;3.15;;;34.80;9.20;;;;;;5075290;28;20200;-76
2023/05/31 11:46:05;;;;;;;3.20;2.40;;;34.80;9.00;;;;;;5075281;28;20253;-77
2023/05/31 11:48:41;;;;;;;5.53;2.55;;;34.90;7.90;;;;;;5075338;28;20197;-76
2023/05/31 11:51:08;;;;;;;4.13;3.00;;;35.20;8.10;;;;;;5075256;28;20543;-76
2023/05/31 11:53:35;;;;;;;6.50;3.03;;;35.40;7.60;;;;;;5075041;28;20591;-76
2023/05/31 11:56:03;;;;;;;3.58;3.08;;;35.10;7.40;;;;;;5075403;28;20208;-76
2023/05/31 11:58:30;;;;;;;4.53;2.90;;;35.40;7.10;;;;;;5075160;28;20204;-76
2023/05/31 12:01:01;;;;;;;8.43;3.03;;;35.80;7.30;;;;;;5075148;28;20196;-76
2023/05/31 12:03:28;;;;;;;6.35;2.90;;;36.00;7.40;;;;;;5075050;28;20197;-76
2023/05/31 12:05:59;;;;;;;3.53;2.70;;;36.20;7.30;;;;;;5074814;28;20235;-76
2023/05/31 12:08:28;;;;;;;5.68;2.58;;;36.10;6.90;;;;;;5075000;28;20211;-76
2023/05/31 12:11:01;;;;;;;6.85;3.38;;;36.30;7.10;;;;;;5074692;28;20744;-76
2023/05/31 12:13:29;;;;;;;12.85;3.17;;;36.50;7.10;;;;;;5074971;28;20197;-77
2023/05/31 12:15:56;;;;;;;5.63;2.90;;;36.40;7.00;;;;;;5074802;28;20628;-76
2023/05/31 12:18:23;;;;;;;6.15;3.35;;;36.40;7.10;;;;;;5074699;28;20201;-77
2023/05/31 12:20:49;;;;;;;6.72;2.85;;;36.60;7.00;;;;;;5074637;28;20200;-77
2023/05/31 12:23:18;;;;;;;6.00;3.28;;;37.20;7.10;;;;;;5074846;28;20250;-76
2023/05/31 12:25:46;;;;;;;6.10;3.13;;;37.40;6.00;;;;;;5074514;28;20286;-76
2023/05/31 12:28:13;;;;;;;4.93;2.60;;;37.30;5.80;;;;;;5074420;28;20196;-76
2023/05/31 12:30:44;;;;;;;4.15;2.90;;;37.30;5.70;;;;;;5074352;28;20203;-76
2023/05/31 12:33:11;;;;;;;6.15;3.40;;;37.00;5.80;;;;;;5074369;28;20201;-76
2023/05/31 12:35:40;;;;;;;3.40;2.72;;;37.40;6.00;;;;;;5074492;28;20192;-76
2023/05/31 12:38:07;;;;;;;3.55;2.95;;;37.80;5.90;;;;;;5074391;28;20196;-76
2023/05/31 12:40:37;;;;;;;6.55;2.88;;;37.90;5.70;;;;;;5074207;28;20265;-77
2023/05/31 12:43:05;;;;;;;5.68;2.90;;;38.30;5.80;;;;;;5074219;28;20205;-77
2023/05/31 12:45:32;;;;;;;5.45;3.00;;;37.80;5.40;;;;;;5073902;28;20220;-76
2023/05/31 12:48:00;;;;;;;6.65;2.90;;;38.20;5.00;;;;;;5073475;28;20552;-76
2023/05/31 12:50:29;;;;;;;4.65;2.65;;;38.20;5.00;;;;;;5074179;28;20208;-76
2023/05/31 12:52:57;;;;;;;9.00;3.20;;;37.90;5.50;;;;;;5073891;28;20197;-76